Time,TemperatureF,DewpointF,PressureIn,WindDirection,WindDirectionDegrees,WindSpeedMPH,WindSpeedGustMPH,Humidity,HourlyPrecipIn,Conditions,Clouds,dailyrainin,SoftwareType,DateUTC
2013-07-18 00:00:00,72.4,66.6,30.00,NNE,20,13.0,13.0,82,0.00,,,0.00,VWS V14.01,2013-07-18 10:00:00,
2013-07-18 00:05:00,72.5,66.7,30.00,NNE,15,10.0,11.0,82,0.00,,,0.00,VWS V14.01,2013-07-18 10:05:00,
2013-07-18 00:10:00,72.6,66.8,30.00,NNE,19,13.0,17.0,82,0.00,,,0.00,VWS V14.01,2013-07-18 10:10:00,
2013-07-18 00:15:00,72.6,66.4,29.99,NNE,32,9.0,9.0,81,0.00,,,0.00,VWS V14.01,2013-07-18 10:15:00,
2013-07-18 00:21:00,72.6,66.8,30.00,NNE,25,13.0,15.0,82,0.00,,,0.00,VWS V14.01,2013-07-18 10:21:00,
2013-07-18 00:26:00,72.4,66.2,30.00,NE,41,8.0,9.0,81,0.00,,,0.00,VWS V14.01,2013-07-18 10:26:00,
2013-07-18 00:31:00,72.4,66.2,30.00,NE,40,9.0,10.0,81,0.00,,,0.00,VWS V14.01,2013-07-18 10:31:00,
2013-07-18 00:36:00,72.3,66.2,30.00,North,353,11.0,11.0,81,0.00,,,0.00,VWS V14.01,2013-07-18 10:36:00,
2013-07-18 00:41:00,72.2,66.1,29.99,NNE,28,8.0,10.0,81,0.00,,,0.00,VWS V14.01,2013-07-18 10:41:00,
2013-07-18 00:46:00,72.2,65.7,29.99,NNE,27,8.0,13.0,80,0.00,,,0.00,VWS V14.01,2013-07-18 10:46:00,
2013-07-18 00:51:00,72.3,65.4,29.99,ENE,77,2.0,6.0,79,0.00,,,0.00,VWS V14.01,2013-07-18 10:51:00,
2013-07-18 00:56:00,72.4,65.5,29.99,ENE,57,6.0,6.0,79,0.00,,,0.00,VWS V14.01,2013-07-18 10:56:00,
2013-07-18 01:01:00,72.4,65.5,29.99,East,90,9.0,12.0,79,0.00,,,0.00,VWS V14.01,2013-07-18 11:01:00,
2013-07-18 01:06:00,72.6,65.7,29.99,NNE,26,9.0,11.0,79,0.00,,,0.00,VWS V14.01,2013-07-18 11:06:00,
2013-07-18 01:11:00,72.7,65.8,29.99,NW,311,19.0,24.0,79,0.00,,,0.00,VWS V14.01,2013-07-18 11:11:00,
2013-07-18 01:16:00,72.8,65.9,29.99,NE,52,11.0,11.0,79,0.00,,,0.00,VWS V14.01,2013-07-18 11:16:00,
2013-07-18 01:22:00,72.6,66.4,29.99,ENE,66,4.0,4.0,81,0.00,,,0.00,VWS V14.01,2013-07-18 11:22:00,
2013-07-18 01:27:00,72.5,66.0,29.98,North,9,12.0,12.0,80,0.00,,,0.00,VWS V14.01,2013-07-18 11:27:00,
2013-07-18 01:32:00,72.7,65.4,29.98,NE,49,12.0,12.0,78,0.00,,,0.00,VWS V14.01,2013-07-18 11:32:00,
2013-07-18 01:37:00,72.9,65.3,29.98,NE,40,16.0,16.0,77,0.00,,,0.00,VWS V14.01,2013-07-18 11:37:00,
2013-07-18 01:42:00,73.2,64.8,29.97,North,354,14.0,14.0,75,0.00,,,0.00,VWS V14.01,2013-07-18 11:42:00,
2013-07-18 01:47:00,73.2,65.2,29.98,NE,42,10.0,10.0,76,0.00,,,0.00,VWS V14.01,2013-07-18 11:47:00,
2013-07-18 01:52:00,73.0,65.4,29.97,NE,47,5.0,7.0,77,0.00,,,0.00,VWS V14.01,2013-07-18 11:52:00,
2013-07-18 01:57:00,72.8,65.6,29.97,NE,45,4.0,5.0,78,0.00,,,0.00,VWS V14.01,2013-07-18 11:57:00,
2013-07-18 02:02:00,72.7,65.8,29.97,NE,40,16.0,16.0,79,0.00,,,0.00,VWS V14.01,2013-07-18 12:02:00,
2013-07-18 02:07:00,72.7,66.2,29.97,NNE,21,19.0,19.0,80,0.00,,,0.00,VWS V14.01,2013-07-18 12:07:00,
2013-07-18 02:12:00,72.6,66.4,29.97,NNE,19,9.0,9.0,81,0.00,,,0.00,VWS V14.01,2013-07-18 12:12:00,
2013-07-18 02:17:00,72.4,66.2,29.97,North,360,17.0,17.0,81,0.00,,,0.00,VWS V14.01,2013-07-18 12:17:00,
2013-07-18 02:22:00,72.5,66.0,29.97,North,7,8.0,13.0,80,0.00,,,0.00,VWS V14.01,2013-07-18 12:22:00,
2013-07-18 02:28:00,72.5,66.0,29.97,East,81,14.0,14.0,80,0.00,,,0.00,VWS V14.01,2013-07-18 12:28:00,
2013-07-18 02:33:00,72.5,66.0,29.97,NE,38,8.0,12.0,80,0.00,,,0.00,VWS V14.01,2013-07-18 12:33:00,
2013-07-18 02:38:00,72.4,66.6,29.97,ENE,57,7.0,11.0,82,0.00,,,0.00,VWS V14.01,2013-07-18 12:38:00,
2013-07-18 02:43:00,72.3,66.8,29.97,NNE,18,7.0,7.0,83,0.00,,,0.00,VWS V14.01,2013-07-18 12:43:00,
2013-07-18 02:48:00,72.1,66.7,29.97,NNE,19,9.0,9.0,83,0.00,,,0.00,VWS V14.01,2013-07-18 12:48:00,
2013-07-18 02:53:00,71.9,66.1,29.97,NNE,33,11.0,16.0,82,0.00,,,0.00,VWS V14.01,2013-07-18 12:53:00,
2013-07-18 02:58:00,72.0,66.6,29.97,East,81,7.0,8.0,83,0.00,,,0.00,VWS V14.01,2013-07-18 12:58:00,
2013-07-18 03:03:00,71.9,66.5,29.97,NE,41,5.0,5.0,83,0.00,,,0.00,VWS V14.01,2013-07-18 13:03:00,
2013-07-18 03:08:00,71.8,67.1,29.97,ENE,60,10.0,10.0,85,0.00,,,0.00,VWS V14.01,2013-07-18 13:08:00,
2013-07-18 03:14:00,71.8,67.1,29.97,NE,45,11.0,11.0,85,0.00,,,0.00,VWS V14.01,2013-07-18 13:14:00,
2013-07-18 03:19:00,71.8,66.7,29.97,NNE,31,9.0,9.0,84,0.00,,,0.00,VWS V14.01,2013-07-18 13:19:00,
2013-07-18 03:24:00,71.8,66.7,29.96,NNE,16,15.0,15.0,84,0.00,,,0.00,VWS V14.01,2013-07-18 13:24:00,
2013-07-18 03:29:00,71.7,66.3,29.96,NNE,13,12.0,12.0,83,0.00,,,0.00,VWS V14.01,2013-07-18 13:29:00,
2013-07-18 03:34:00,72.0,66.2,29.97,NE,36,11.0,18.0,82,0.00,,,0.00,VWS V14.01,2013-07-18 13:34:00,
2013-07-18 03:39:00,72.0,66.6,29.97,NNE,24,12.0,15.0,83,0.00,,,0.00,VWS V14.01,2013-07-18 13:39:00,
2013-07-18 03:44:00,71.9,66.5,29.97,North,355,14.0,14.0,83,0.00,,,0.00,VWS V14.01,2013-07-18 13:44:00,
2013-07-18 03:49:00,71.8,66.0,29.97,NNE,29,11.0,11.0,82,0.00,,,0.00,VWS V14.01,2013-07-18 13:49:00,
2013-07-18 03:54:00,72.0,66.6,29.97,NW,325,12.0,12.0,83,0.00,,,0.00,VWS V14.01,2013-07-18 13:54:00,
2013-07-18 03:59:00,71.9,66.1,29.97,NE,47,13.0,13.0,82,0.00,,,0.00,VWS V14.01,2013-07-18 13:59:00,
2013-07-18 04:04:00,72.0,65.9,29.97,NNE,28,12.0,12.0,81,0.00,,,0.00,VWS V14.01,2013-07-18 14:04:00,
2013-07-18 04:10:00,72.0,66.2,29.97,NE,37,7.0,10.0,82,0.00,,,0.00,VWS V14.01,2013-07-18 14:10:00,
2013-07-18 04:15:00,72.0,66.6,29.97,North,360,4.0,4.0,83,0.00,,,0.00,VWS V14.01,2013-07-18 14:15:00,
2013-07-18 04:20:00,72.0,66.6,29.97,NNE,29,10.0,15.0,83,0.00,,,0.00,VWS V14.01,2013-07-18 14:20:00,
2013-07-18 04:25:00,72.0,66.6,29.97,NNE,19,11.0,14.0,83,0.00,,,0.00,VWS V14.01,2013-07-18 14:25:00,
2013-07-18 04:30:00,72.1,66.7,29.97,NE,45,13.0,14.0,83,0.00,,,0.00,VWS V14.01,2013-07-18 14:30:00,
2013-07-18 04:35:00,72.0,66.2,29.97,NE,56,15.0,24.0,82,0.00,,,0.00,VWS V14.01,2013-07-18 14:35:00,
2013-07-18 04:40:00,72.0,66.2,29.98,NNE,27,8.0,11.0,82,0.00,,,0.00,VWS V14.01,2013-07-18 14:40:00,
2013-07-18 04:45:00,72.0,66.6,29.97,NNE,18,15.0,15.0,83,0.00,,,0.00,VWS V14.01,2013-07-18 14:45:00,
2013-07-18 04:50:00,71.9,66.5,29.97,NNE,24,12.0,13.0,83,0.00,,,0.00,VWS V14.01,2013-07-18 14:50:00,
2013-07-18 04:55:00,72.0,66.9,29.97,ENE,61,11.0,14.0,84,0.00,,,0.00,VWS V14.01,2013-07-18 14:55:00,
2013-07-18 05:00:00,71.8,67.1,29.97,NNE,24,13.0,16.0,85,0.00,,,0.00,VWS V14.01,2013-07-18 15:00:00,
2013-07-18 05:06:00,71.8,66.7,29.97,NE,42,11.0,14.0,84,0.00,,,0.00,VWS V14.01,2013-07-18 15:06:00,
2013-07-18 05:11:00,71.8,66.7,29.97,East,91,9.0,11.0,84,0.00,,,0.00,VWS V14.01,2013-07-18 15:11:00,
2013-07-18 05:16:00,71.8,66.7,29.97,NNE,31,13.0,15.0,84,0.00,,,0.00,VWS V14.01,2013-07-18 15:16:00,
2013-07-18 05:21:00,72.0,66.9,29.97,NE,46,7.0,11.0,84,0.00,,,0.00,VWS V14.01,2013-07-18 15:21:00,
2013-07-18 05:26:00,71.9,67.2,29.98,NE,35,6.0,9.0,85,0.00,,,0.00,VWS V14.01,2013-07-18 15:26:00,
2013-07-18 05:31:00,71.7,66.6,29.98,NNE,28,11.0,13.0,84,0.00,,,0.00,VWS V14.01,2013-07-18 15:31:00,
2013-07-18 05:36:00,71.8,66.4,29.98,NNE,21,8.0,14.0,83,0.00,,,0.00,VWS V14.01,2013-07-18 15:36:00,
2013-07-18 05:42:00,71.8,66.4,29.98,NE,43,8.0,8.0,83,0.00,,,0.00,VWS V14.01,2013-07-18 15:42:00,
2013-07-18 05:47:00,71.7,66.3,29.98,NE,47,6.0,7.0,83,0.00,,,0.00,VWS V14.01,2013-07-18 15:47:00,
2013-07-18 05:52:00,71.8,66.4,29.98,NE,38,8.0,8.0,83,0.00,,,0.00,VWS V14.01,2013-07-18 15:52:00,
2013-07-18 05:57:00,71.7,66.3,29.98,NE,36,7.0,9.0,83,0.00,,,0.00,VWS V14.01,2013-07-18 15:57:00,
2013-07-18 06:02:00,71.9,66.1,29.98,ENE,68,12.0,12.0,82,0.00,,,0.00,VWS V14.01,2013-07-18 16:02:00,
2013-07-18 06:07:00,71.9,66.8,29.99,NE,45,10.0,15.0,84,0.00,,,0.00,VWS V14.01,2013-07-18 16:07:00,
2013-07-18 06:12:00,71.9,66.5,29.99,NE,41,8.0,9.0,83,0.00,,,0.00,VWS V14.01,2013-07-18 16:12:00,
2013-07-18 06:17:00,71.9,66.5,29.99,NE,37,13.0,15.0,83,0.00,,,0.00,VWS V14.01,2013-07-18 16:17:00,
2013-07-18 06:22:00,72.2,66.8,30.00,NNE,24,15.0,15.0,83,0.00,,,0.00,VWS V14.01,2013-07-18 16:22:00,
2013-07-18 06:27:00,72.3,66.8,30.00,NE,38,2.0,4.0,83,0.00,,,0.00,VWS V14.01,2013-07-18 16:27:00,
2013-07-18 06:32:00,72.3,67.2,30.00,ENE,64,3.0,4.0,84,0.00,,,0.00,VWS V14.01,2013-07-18 16:32:00,
2013-07-18 06:37:00,72.2,67.4,30.00,North,9,8.0,11.0,85,0.00,,,0.00,VWS V14.01,2013-07-18 16:37:00,
2013-07-18 06:42:00,71.8,66.7,30.00,NE,40,5.0,5.0,84,0.00,,,0.00,VWS V14.01,2013-07-18 16:42:00,
2013-07-18 06:47:00,72.0,66.6,30.00,NNE,19,12.0,12.0,83,0.00,,,0.00,VWS V14.01,2013-07-18 16:47:00,
2013-07-18 06:52:00,72.3,66.5,30.00,NW,307,14.0,14.0,82,0.00,,,0.00,VWS V14.01,2013-07-18 16:52:00,
2013-07-18 06:57:00,72.6,66.4,30.00,NNE,24,8.0,8.0,81,0.00,,,0.00,VWS V14.01,2013-07-18 16:57:00,
2013-07-18 07:02:00,72.9,66.4,30.00,North,350,11.0,14.0,80,0.00,,,0.00,VWS V14.01,2013-07-18 17:02:00,
2013-07-18 07:08:00,73.5,66.6,30.00,North,7,13.0,15.0,79,0.00,,,0.00,VWS V14.01,2013-07-18 17:08:00,
2013-07-18 07:13:00,73.7,65.7,30.00,NE,49,6.0,6.0,76,0.00,,,0.00,VWS V14.01,2013-07-18 17:13:00,
2013-07-18 07:18:00,74.0,65.6,30.01,ENE,59,8.0,10.0,75,0.00,,,0.00,VWS V14.01,2013-07-18 17:18:00,
2013-07-18 07:23:00,74.4,65.2,30.00,NNE,28,11.0,12.0,73,0.00,,,0.00,VWS V14.01,2013-07-18 17:23:00,
2013-07-18 07:28:00,74.7,65.9,30.00,NE,50,12.0,16.0,74,0.00,,,0.00,VWS V14.01,2013-07-18 17:28:00,
2013-07-18 07:33:00,74.5,66.1,30.01,NE,36,4.0,14.0,75,0.00,,,0.00,VWS V14.01,2013-07-18 17:33:00,
2013-07-18 07:38:00,74.5,66.8,30.01,NE,47,7.0,10.0,77,0.00,,,0.00,VWS V14.01,2013-07-18 17:38:00,
2013-07-18 07:43:00,74.5,66.8,30.01,North,360,11.0,14.0,77,0.00,,,0.00,VWS V14.01,2013-07-18 17:43:00,
2013-07-18 07:48:00,74.2,67.3,30.01,NE,38,8.0,9.0,79,0.00,,,0.00,VWS V14.01,2013-07-18 17:48:00,
2013-07-18 07:53:00,74.4,67.8,30.01,ESE,102,8.0,14.0,80,0.00,,,0.00,VWS V14.01,2013-07-18 17:53:00,
2013-07-18 07:58:00,74.7,67.4,30.01,NE,49,11.0,12.0,78,0.00,,,0.00,VWS V14.01,2013-07-18 17:58:00,
2013-07-18 08:03:00,74.2,67.3,30.02,East,97,12.0,13.0,79,0.00,,,0.00,VWS V14.01,2013-07-18 18:03:00,
2013-07-18 08:08:00,74.1,67.2,30.01,NE,46,8.0,8.0,79,0.00,,,0.00,VWS V14.01,2013-07-18 18:08:00,
2013-07-18 08:13:00,74.3,67.0,30.02,NNE,28,9.0,9.0,78,0.00,,,0.00,VWS V14.01,2013-07-18 18:13:00,
2013-07-18 08:18:00,74.1,66.4,30.01,NNE,22,10.0,13.0,77,0.00,,,0.00,VWS V14.01,2013-07-18 18:18:00,
2013-07-18 08:23:00,74.5,66.8,30.01,NNE,17,11.0,12.0,77,0.00,,,0.00,VWS V14.01,2013-07-18 18:23:00,
2013-07-18 08:28:00,75.1,66.6,30.01,NNW,345,18.0,18.0,75,0.00,,,0.00,VWS V14.01,2013-07-18 18:28:00,
2013-07-18 08:34:00,75.4,66.5,30.01,NE,51,15.0,16.0,74,0.00,,,0.00,VWS V14.01,2013-07-18 18:34:00,
2013-07-18 08:39:00,75.0,66.6,30.01,NE,54,5.0,7.0,75,0.00,,,0.00,VWS V14.01,2013-07-18 18:39:00,
2013-07-18 08:44:00,75.6,66.7,30.01,NNE,14,11.0,11.0,74,0.00,,,0.00,VWS V14.01,2013-07-18 18:44:00,
2013-07-18 08:49:00,75.8,67.3,30.01,ENE,59,7.0,8.0,75,0.00,,,0.00,VWS V14.01,2013-07-18 18:49:00,
2013-07-18 08:54:00,76.3,67.0,30.01,ENE,63,13.0,13.0,73,0.00,,,0.00,VWS V14.01,2013-07-18 18:54:00,
2013-07-18 08:59:00,76.1,67.2,30.02,NE,52,11.0,13.0,74,0.00,,,0.00,VWS V14.01,2013-07-18 18:59:00,
2013-07-18 09:04:00,75.7,66.8,30.02,NNE,27,10.0,11.0,74,0.00,,,0.00,VWS V14.01,2013-07-18 19:04:00,
2013-07-18 09:09:00,75.1,67.0,30.02,ENE,59,6.0,7.0,76,0.00,,,0.00,VWS V14.01,2013-07-18 19:09:00,
2013-07-18 09:14:00,75.0,66.9,30.02,NE,44,11.0,15.0,76,0.00,,,0.00,VWS V14.01,2013-07-18 19:14:00,
2013-07-18 09:19:00,74.9,66.8,30.02,NNE,33,11.0,11.0,76,0.00,,,0.00,VWS V14.01,2013-07-18 19:19:00,
2013-07-18 09:24:00,74.8,67.5,30.02,NE,38,5.0,7.0,78,0.00,,,0.00,VWS V14.01,2013-07-18 19:24:00,
2013-07-18 09:29:00,74.9,67.6,30.01,ENE,61,12.0,12.0,78,0.00,,,0.00,VWS V14.01,2013-07-18 19:29:00,
2013-07-18 09:34:00,75.4,68.1,30.01,NNE,29,9.0,9.0,78,0.00,,,0.00,VWS V14.01,2013-07-18 19:34:00,
2013-07-18 09:39:00,75.5,67.8,30.02,NE,53,14.0,14.0,77,0.00,,,0.00,VWS V14.01,2013-07-18 19:39:00,
2013-07-18 09:44:00,75.6,68.3,30.01,NE,52,11.0,11.0,78,0.00,,,0.00,VWS V14.01,2013-07-18 19:44:00,
2013-07-18 09:49:00,75.7,68.0,30.01,NE,43,13.0,13.0,77,0.00,,,0.00,VWS V14.01,2013-07-18 19:49:00,
2013-07-18 09:54:00,76.2,67.7,30.01,NNE,23,6.0,10.0,75,0.00,,,0.00,VWS V14.01,2013-07-18 19:54:00,
2013-07-18 09:59:00,76.7,68.2,30.01,NE,55,14.0,14.0,75,0.00,,,0.00,VWS V14.01,2013-07-18 19:59:00,
2013-07-18 10:04:00,76.7,68.2,30.01,ENE,57,11.0,11.0,75,0.00,,,0.00,VWS V14.01,2013-07-18 20:04:00,
2013-07-18 10:09:00,76.6,68.5,30.01,East,92,13.0,13.0,76,0.00,,,0.00,VWS V14.01,2013-07-18 20:09:00,
2013-07-18 10:14:00,76.4,67.5,30.01,NE,54,8.0,11.0,74,0.00,,,0.00,VWS V14.01,2013-07-18 20:14:00,
2013-07-18 10:19:00,76.0,67.9,30.01,ENE,61,10.0,11.0,76,0.00,,,0.00,VWS V14.01,2013-07-18 20:19:00,
2013-07-18 10:24:00,75.5,68.2,30.02,NE,44,9.0,9.0,78,0.00,,,0.00,VWS V14.01,2013-07-18 20:24:00,
2013-07-18 10:29:00,75.3,68.0,30.01,NE,38,9.0,9.0,78,0.00,,,0.00,VWS V14.01,2013-07-18 20:29:00,
2013-07-18 10:30:00,75.3,68.3,30.02,NE,38,5.0,10.0,79,0.00,,,0.00,VWS V14.01,2013-07-18 20:30:00,
2013-07-18 10:35:00,75.1,68.2,30.01,NNE,23,10.0,13.0,79,0.00,,,0.00,VWS V14.01,2013-07-18 20:35:00,
2013-07-18 10:40:00,75.4,68.8,30.01,ENE,64,8.0,10.0,80,0.00,,,0.00,VWS V14.01,2013-07-18 20:40:00,
2013-07-18 10:45:00,75.8,68.8,30.01,NNE,18,13.0,14.0,79,0.00,,,0.00,VWS V14.01,2013-07-18 20:45:00,
2013-07-18 10:50:00,75.6,69.0,30.01,ENE,64,6.0,9.0,80,0.00,,,0.00,VWS V14.01,2013-07-18 20:50:00,
2013-07-18 10:55:00,75.7,69.1,30.01,ESE,111,11.0,12.0,80,0.00,,,0.00,VWS V14.01,2013-07-18 20:55:00,
2013-07-18 11:00:00,76.2,69.6,30.01,East,91,12.0,14.0,80,0.00,,,0.00,VWS V14.01,2013-07-18 21:00:00,
2013-07-18 11:05:00,76.1,69.5,30.01,NE,54,6.0,7.0,80,0.00,,,0.00,VWS V14.01,2013-07-18 21:05:00,
2013-07-18 11:10:00,75.6,69.0,30.01,East,95,8.0,8.0,80,0.00,,,0.00,VWS V14.01,2013-07-18 21:10:00,
2013-07-18 11:15:00,75.6,69.0,30.01,East,83,14.0,14.0,80,0.00,,,0.00,VWS V14.01,2013-07-18 21:15:00,
2013-07-18 11:20:00,76.1,69.5,30.01,ENE,76,14.0,14.0,80,0.00,,,0.00,VWS V14.01,2013-07-18 21:20:00,
2013-07-18 11:25:00,76.3,68.9,30.01,ENE,72,12.0,12.0,78,0.00,,,0.00,VWS V14.01,2013-07-18 21:25:00,
2013-07-18 11:30:00,75.7,68.4,30.01,East,80,8.0,8.0,78,0.00,,,0.00,VWS V14.01,2013-07-18 21:30:00,
2013-07-18 11:35:00,75.8,68.5,30.01,NNE,23,9.0,11.0,78,0.00,,,0.00,VWS V14.01,2013-07-18 21:35:00,
2013-07-18 11:40:00,75.7,68.7,30.00,East,84,9.0,10.0,79,0.00,,,0.00,VWS V14.01,2013-07-18 21:40:00,
2013-07-18 11:45:00,75.5,68.2,30.00,ENE,64,11.0,13.0,78,0.00,,,0.00,VWS V14.01,2013-07-18 21:45:00,
2013-07-18 11:50:00,75.5,68.9,30.00,NE,47,7.0,9.0,80,0.00,,,0.00,VWS V14.01,2013-07-18 21:50:00,
2013-07-18 11:55:00,75.0,68.1,30.00,NE,54,9.0,9.0,79,0.00,,,0.00,VWS V14.01,2013-07-18 21:55:00,
2013-07-18 12:01:00,74.7,68.5,30.00,NE,34,13.0,18.0,81,0.00,,,0.00,VWS V14.01,2013-07-18 22:01:00,
2013-07-18 12:06:00,74.4,68.6,30.00,NE,38,6.0,6.0,82,0.00,,,0.00,VWS V14.01,2013-07-18 22:06:00,
2013-07-18 12:11:00,74.6,69.1,30.00,ENE,66,11.0,11.0,83,0.00,,,0.00,VWS V14.01,2013-07-18 22:11:00,
2013-07-18 12:16:00,74.9,69.7,30.00,East,83,9.0,10.0,84,0.00,,,0.00,VWS V14.01,2013-07-18 22:16:00,
2013-07-18 12:21:00,74.8,70.0,30.00,ENE,58,8.0,10.0,85,0.00,,,0.00,VWS V14.01,2013-07-18 22:21:00,
2013-07-18 12:26:00,74.9,70.1,30.00,ENE,59,15.0,16.0,85,0.00,,,0.00,VWS V14.01,2013-07-18 22:26:00,
2013-07-18 12:31:00,75.1,69.9,30.00,East,85,12.0,14.0,84,0.00,,,0.00,VWS V14.01,2013-07-18 22:31:00,
2013-07-18 12:36:00,75.3,70.1,30.00,ENE,58,16.0,16.0,84,0.00,,,0.00,VWS V14.01,2013-07-18 22:36:00,
2013-07-18 12:41:00,74.8,69.7,30.00,ENE,68,7.0,11.0,84,0.00,,,0.00,VWS V14.01,2013-07-18 22:41:00,
2013-07-18 12:46:00,74.5,69.3,30.00,ESE,109,11.0,14.0,84,0.00,,,0.00,VWS V14.01,2013-07-18 22:46:00,
2013-07-18 12:51:00,74.6,69.4,30.00,NE,56,10.0,11.0,84,0.00,,,0.00,VWS V14.01,2013-07-18 22:51:00,
2013-07-18 12:56:00,74.2,69.1,30.00,ESE,102,14.0,16.0,84,0.00,,,0.00,VWS V14.01,2013-07-18 22:56:00,
2013-07-18 13:01:00,74.0,68.9,30.00,NE,48,9.0,9.0,84,0.00,,,0.00,VWS V14.01,2013-07-18 23:01:00,
2013-07-18 13:07:00,74.2,69.1,30.00,NNE,26,8.0,11.0,84,0.00,,,0.00,VWS V14.01,2013-07-18 23:07:00,
2013-07-18 13:12:00,74.2,69.1,29.99,ENE,57,16.0,16.0,84,0.00,,,0.00,VWS V14.01,2013-07-18 23:12:00,
2013-07-18 13:17:00,74.2,69.4,30.00,East,98,14.0,14.0,85,0.00,,,0.00,VWS V14.01,2013-07-18 23:17:00,
2013-07-18 13:22:00,74.0,69.2,29.99,NE,52,15.0,15.0,85,0.00,,,0.00,VWS V14.01,2013-07-18 23:22:00,
2013-07-18 13:27:00,74.0,69.2,29.99,NE,45,10.0,13.0,85,0.00,,,0.00,VWS V14.01,2013-07-18 23:27:00,
2013-07-18 13:32:00,73.9,69.1,29.99,East,85,6.0,10.0,85,0.00,,,0.00,VWS V14.01,2013-07-18 23:32:00,
2013-07-18 13:37:00,73.9,69.1,29.99,NE,35,10.0,11.0,85,0.00,,,0.00,VWS V14.01,2013-07-18 23:37:00,
2013-07-18 13:42:00,74.1,69.3,29.99,East,93,12.0,12.0,85,0.00,,,0.00,VWS V14.01,2013-07-18 23:42:00,
2013-07-18 13:47:00,73.9,68.4,29.99,East,79,7.0,9.0,83,0.00,,,0.00,VWS V14.01,2013-07-18 23:47:00,
2013-07-18 13:52:00,74.6,69.4,29.99,ENE,65,8.0,11.0,84,0.00,,,0.00,VWS V14.01,2013-07-18 23:52:00,
2013-07-18 13:57:00,74.8,69.3,29.99,ENE,64,10.0,11.0,83,0.00,,,0.00,VWS V14.01,2013-07-18 23:57:00,
2013-07-18 14:02:00,74.9,69.0,29.99,ESE,111,10.0,11.0,82,0.00,,,0.00,VWS V14.01,2013-07-19 00:02:00,
2013-07-18 14:07:00,75.0,69.5,29.98,East,85,11.0,14.0,83,0.00,,,0.00,VWS V14.01,2013-07-19 00:07:00,
2013-07-18 14:12:00,75.1,69.6,29.98,NE,47,11.0,13.0,83,0.00,,,0.00,VWS V14.01,2013-07-19 00:12:00,
2013-07-18 14:17:00,74.9,69.7,29.98,ENE,57,15.0,15.0,84,0.00,,,0.00,VWS V14.01,2013-07-19 00:17:00,
2013-07-18 14:22:00,74.9,69.4,29.98,NE,52,13.0,13.0,83,0.00,,,0.00,VWS V14.01,2013-07-19 00:22:00,
2013-07-18 14:27:00,74.7,69.2,29.98,ENE,57,7.0,7.0,83,0.00,,,0.00,VWS V14.01,2013-07-19 00:27:00,
2013-07-18 14:32:00,74.8,68.9,29.98,ENE,63,11.0,11.0,82,0.00,,,0.00,VWS V14.01,2013-07-19 00:32:00,
2013-07-18 14:37:00,74.8,68.9,29.98,ENE,57,11.0,11.0,82,0.00,,,0.00,VWS V14.01,2013-07-19 00:37:00,
2013-07-18 14:42:00,74.8,69.3,29.98,NE,42,10.0,10.0,83,0.00,,,0.00,VWS V14.01,2013-07-19 00:42:00,
2013-07-18 14:47:00,74.9,69.4,29.98,East,82,13.0,13.0,83,0.00,,,0.00,VWS V14.01,2013-07-19 00:47:00,
2013-07-18 14:52:00,75.0,68.8,29.98,ENE,57,12.0,12.0,81,0.00,,,0.00,VWS V14.01,2013-07-19 00:52:00,
2013-07-18 14:57:00,74.6,68.0,29.97,NNE,33,6.0,10.0,80,0.00,,,0.00,VWS V14.01,2013-07-19 00:57:00,
2013-07-18 15:02:00,74.9,68.7,29.97,ESE,102,14.0,14.0,81,0.00,,,0.00,VWS V14.01,2013-07-19 01:02:00,
2013-07-18 15:07:00,75.3,69.1,29.97,NE,54,14.0,14.0,81,0.00,,,0.00,VWS V14.01,2013-07-19 01:07:00,
2013-07-18 15:12:00,75.1,68.9,29.97,NE,35,6.0,9.0,81,0.00,,,0.00,VWS V14.01,2013-07-19 01:12:00,
2013-07-18 15:17:00,75.1,69.2,29.97,East,93,10.0,12.0,82,0.00,,,0.00,VWS V14.01,2013-07-19 01:17:00,
2013-07-18 15:22:00,75.2,69.0,29.97,East,85,12.0,12.0,81,0.00,,,0.00,VWS V14.01,2013-07-19 01:22:00,
2013-07-18 15:27:00,75.3,68.3,29.97,ENE,59,13.0,13.0,79,0.00,,,0.00,VWS V14.01,2013-07-19 01:27:00,
2013-07-18 15:32:00,75.2,69.0,29.97,ENE,71,8.0,9.0,81,0.00,,,0.00,VWS V14.01,2013-07-19 01:32:00,
2013-07-18 15:37:00,75.0,69.1,29.97,NE,38,15.0,15.0,82,0.00,,,0.00,VWS V14.01,2013-07-19 01:37:00,
2013-07-18 15:42:00,74.7,68.5,29.97,NE,53,8.0,8.0,81,0.00,,,0.00,VWS V14.01,2013-07-19 01:42:00,
2013-07-18 15:48:00,74.6,68.8,29.97,NE,53,10.0,10.0,82,0.00,,,0.00,VWS V14.01,2013-07-19 01:48:00,
2013-07-18 15:53:00,74.9,69.0,29.97,ENE,61,11.0,11.0,82,0.00,,,0.00,VWS V14.01,2013-07-19 01:53:00,
2013-07-18 15:58:00,74.7,69.2,29.97,ENE,68,10.0,13.0,83,0.00,,,0.00,VWS V14.01,2013-07-19 01:58:00,
2013-07-18 16:03:00,74.7,69.6,29.97,ENE,57,12.0,12.0,84,0.00,,,0.00,VWS V14.01,2013-07-19 02:03:00,
2013-07-18 16:08:00,74.4,69.3,29.96,East,90,9.0,14.0,84,0.00,,,0.00,VWS V14.01,2013-07-19 02:08:00,
2013-07-18 16:13:00,74.6,69.1,29.96,East,87,8.0,8.0,83,0.00,,,0.00,VWS V14.01,2013-07-19 02:13:00,
2013-07-18 16:18:00,74.6,69.1,29.96,ENE,59,12.0,13.0,83,0.00,,,0.00,VWS V14.01,2013-07-19 02:18:00,
2013-07-18 16:23:00,74.5,68.7,29.96,ENE,61,10.0,10.0,82,0.00,,,0.00,VWS V14.01,2013-07-19 02:23:00,
2013-07-18 16:28:00,74.6,69.1,29.96,NE,42,10.0,13.0,83,0.00,,,0.00,VWS V14.01,2013-07-19 02:28:00,
2013-07-18 16:33:00,74.4,68.9,29.96,ENE,74,10.0,10.0,83,0.00,,,0.00,VWS V14.01,2013-07-19 02:33:00,
2013-07-18 16:38:00,74.6,68.8,29.96,NE,56,13.0,14.0,82,0.00,,,0.00,VWS V14.01,2013-07-19 02:38:00,
2013-07-18 16:43:00,74.6,68.0,29.96,NNE,31,8.0,8.0,80,0.00,,,0.00,VWS V14.01,2013-07-19 02:43:00,
2013-07-18 16:48:00,74.9,68.3,29.96,ENE,58,9.0,9.0,80,0.00,,,0.00,VWS V14.01,2013-07-19 02:48:00,
2013-07-18 16:53:00,75.0,68.1,29.96,NE,56,5.0,6.0,79,0.00,,,0.00,VWS V14.01,2013-07-19 02:53:00,
2013-07-18 16:58:00,75.0,68.1,29.96,NNE,31,7.0,7.0,79,0.00,,,0.00,VWS V14.01,2013-07-19 02:58:00,
2013-07-18 17:03:00,75.2,68.2,29.96,ENE,68,9.0,10.0,79,0.00,,,0.00,VWS V14.01,2013-07-19 03:03:00,
2013-07-18 17:08:00,75.0,68.4,29.97,East,89,12.0,12.0,80,0.00,,,0.00,VWS V14.01,2013-07-19 03:08:00,
2013-07-18 17:13:00,74.4,67.5,29.97,NNE,31,6.0,8.0,79,0.00,,,0.00,VWS V14.01,2013-07-19 03:13:00,
2013-07-18 17:18:00,74.3,68.8,29.96,NE,41,7.0,7.0,83,0.00,,,0.00,VWS V14.01,2013-07-19 03:18:00,
2013-07-18 17:23:00,74.3,69.2,29.97,NE,35,10.0,10.0,84,0.00,,,0.00,VWS V14.01,2013-07-19 03:23:00,
2013-07-18 17:28:00,74.2,69.4,29.97,NE,41,6.0,6.0,85,0.00,,,0.00,VWS V14.01,2013-07-19 03:28:00,
2013-07-18 17:33:00,73.9,69.1,29.97,ENE,78,8.0,8.0,85,0.00,,,0.00,VWS V14.01,2013-07-19 03:33:00,
2013-07-18 17:38:00,74.0,69.6,29.97,NE,46,8.0,8.0,86,0.00,,,0.00,VWS V14.01,2013-07-19 03:38:00,
2013-07-18 17:43:00,73.9,69.4,29.97,ENE,78,7.0,8.0,86,0.00,,,0.00,VWS V14.01,2013-07-19 03:43:00,
2013-07-18 17:48:00,73.6,69.5,29.97,ENE,66,7.0,8.0,87,0.00,,,0.00,VWS V14.01,2013-07-19 03:48:00,
2013-07-18 17:53:00,73.4,69.3,29.97,East,80,5.0,8.0,87,0.00,,,0.00,VWS V14.01,2013-07-19 03:53:00,
2013-07-18 17:58:00,73.5,69.4,29.97,East,97,5.0,5.0,87,0.00,,,0.00,VWS V14.01,2013-07-19 03:58:00,
2013-07-18 18:01:00,73.5,69.4,29.97,NE,38,4.0,6.0,87,0.00,,,0.00,VWS V14.01,2013-07-19 04:01:00,
2013-07-18 18:03:00,73.4,69.3,29.97,NE,52,4.0,5.0,87,0.00,,,0.00,VWS V14.01,2013-07-19 04:03:00,
2013-07-18 18:08:00,73.3,69.2,29.97,NNE,31,7.0,7.0,87,0.00,,,0.00,VWS V14.01,2013-07-19 04:08:00,
2013-07-18 18:13:00,73.3,69.2,29.97,NNE,28,10.0,10.0,87,0.00,,,0.00,VWS V14.01,2013-07-19 04:13:00,
2013-07-18 18:18:00,73.2,69.1,29.98,NE,38,8.0,9.0,87,0.00,,,0.00,VWS V14.01,2013-07-19 04:18:00,
2013-07-18 18:23:00,73.1,69.0,29.97,NE,44,7.0,7.0,87,0.00,,,0.00,VWS V14.01,2013-07-19 04:23:00,
2013-07-18 18:28:00,73.2,69.1,29.97,NNE,26,8.0,9.0,87,0.00,,,0.00,VWS V14.01,2013-07-19 04:28:00,
2013-07-18 18:33:00,73.1,68.7,29.98,NE,39,9.0,11.0,86,0.00,,,0.00,VWS V14.01,2013-07-19 04:33:00,
2013-07-18 18:39:00,73.1,68.7,29.98,NNE,33,5.0,7.0,86,0.00,,,0.00,VWS V14.01,2013-07-19 04:39:00,
2013-07-18 18:44:00,73.1,68.3,29.98,NNW,338,5.0,5.0,85,0.00,,,0.00,VWS V14.01,2013-07-19 04:44:00,
2013-07-18 18:49:00,73.2,68.1,29.98,NNE,17,12.0,12.0,84,0.00,,,0.00,VWS V14.01,2013-07-19 04:49:00,
2013-07-18 18:54:00,73.4,67.9,29.98,NNE,27,6.0,7.0,83,0.00,,,0.00,VWS V14.01,2013-07-19 04:54:00,
2013-07-18 18:59:00,73.6,68.1,29.98,NE,46,11.0,14.0,83,0.00,,,0.00,VWS V14.01,2013-07-19 04:59:00,
2013-07-18 19:04:00,73.6,68.1,29.99,NE,40,9.0,11.0,83,0.00,,,0.00,VWS V14.01,2013-07-19 05:04:00,
2013-07-18 19:09:00,73.5,67.7,29.99,NNE,33,8.0,11.0,82,0.00,,,0.00,VWS V14.01,2013-07-19 05:09:00,
2013-07-18 19:14:00,73.5,67.7,29.99,NE,51,9.0,9.0,82,0.00,,,0.00,VWS V14.01,2013-07-19 05:14:00,
2013-07-18 19:19:00,73.5,67.3,29.99,NE,40,8.0,8.0,81,0.00,,,0.00,VWS V14.01,2013-07-19 05:19:00,
2013-07-18 19:24:00,73.5,67.3,29.99,NNE,22,7.0,7.0,81,0.00,,,0.00,VWS V14.01,2013-07-19 05:24:00,
2013-07-18 19:29:00,73.4,67.2,29.99,NNE,12,10.0,10.0,81,0.00,,,0.00,VWS V14.01,2013-07-19 05:29:00,
2013-07-18 19:34:00,73.5,67.3,30.00,NE,35,11.0,13.0,81,0.00,,,0.00,VWS V14.01,2013-07-19 05:34:00,
2013-07-18 19:39:00,73.5,67.0,30.00,NNE,28,4.0,7.0,80,0.00,,,0.00,VWS V14.01,2013-07-19 05:39:00,
2013-07-18 19:44:00,73.5,67.0,30.00,NNW,346,6.0,10.0,80,0.00,,,0.00,VWS V14.01,2013-07-19 05:44:00,
2013-07-18 19:49:00,73.6,67.1,30.00,ENE,57,5.0,6.0,80,0.00,,,0.00,VWS V14.01,2013-07-19 05:49:00,
2013-07-18 19:54:00,73.6,67.1,30.00,NE,45,8.0,8.0,80,0.00,,,0.00,VWS V14.01,2013-07-19 05:54:00,
2013-07-18 19:59:00,73.7,66.8,30.00,NNE,29,5.0,7.0,79,0.00,,,0.00,VWS V14.01,2013-07-19 05:59:00,
2013-07-18 20:04:00,73.8,67.2,30.01,NNE,28,9.0,12.0,80,0.00,,,0.00,VWS V14.01,2013-07-19 06:04:00,
2013-07-18 20:09:00,73.9,67.3,30.01,NE,46,7.0,7.0,80,0.00,,,0.00,VWS V14.01,2013-07-19 06:09:00,
2013-07-18 20:15:00,73.8,67.2,30.01,ENE,57,5.0,7.0,80,0.00,,,0.00,VWS V14.01,2013-07-19 06:15:00,
2013-07-18 20:20:00,73.7,67.2,30.01,East,92,7.0,8.0,80,0.00,,,0.00,VWS V14.01,2013-07-19 06:20:00,
2013-07-18 20:25:00,73.8,67.2,30.01,NNE,21,4.0,7.0,80,0.00,,,0.00,VWS V14.01,2013-07-19 06:25:00,
2013-07-18 20:30:00,73.9,67.0,30.01,North,9,7.0,7.0,79,0.00,,,0.00,VWS V14.01,2013-07-19 06:30:00,
2013-07-18 20:35:00,74.0,67.1,30.01,NNE,24,10.0,10.0,79,0.00,,,0.00,VWS V14.01,2013-07-19 06:35:00,
2013-07-18 20:40:00,74.0,66.7,30.01,NE,36,5.0,8.0,78,0.00,,,0.00,VWS V14.01,2013-07-19 06:40:00,
2013-07-18 20:45:00,74.0,67.1,30.01,NE,53,10.0,13.0,79,0.00,,,0.00,VWS V14.01,2013-07-19 06:45:00,
2013-07-18 20:50:00,73.9,67.3,30.01,NE,54,7.0,7.0,80,0.00,,,0.00,VWS V14.01,2013-07-19 06:50:00,
2013-07-18 20:55:00,73.8,67.2,30.02,NE,47,3.0,5.0,80,0.00,,,0.00,VWS V14.01,2013-07-19 06:55:00,
2013-07-18 21:00:00,73.7,67.2,30.02,NE,36,11.0,15.0,80,0.00,,,0.00,VWS V14.01,2013-07-19 07:00:00,
2013-07-18 21:05:00,73.7,67.5,30.02,NE,47,8.0,8.0,81,0.00,,,0.00,VWS V14.01,2013-07-19 07:05:00,
2013-07-18 21:10:00,73.6,67.8,30.02,NE,51,12.0,12.0,82,0.00,,,0.00,VWS V14.01,2013-07-19 07:10:00,
2013-07-18 21:16:00,73.5,67.7,30.02,NNE,21,6.0,6.0,82,0.00,,,0.00,VWS V14.01,2013-07-19 07:16:00,
2013-07-18 21:22:00,73.5,67.7,30.02,NE,34,14.0,14.0,82,0.00,,,0.00,VWS V14.01,2013-07-19 07:22:00,
2013-07-18 21:27:00,73.5,67.3,30.02,NNE,28,4.0,7.0,81,0.00,,,0.00,VWS V14.01,2013-07-19 07:27:00,
2013-07-18 21:32:00,73.5,67.3,30.02,NNE,33,7.0,11.0,81,0.00,,,0.00,VWS V14.01,2013-07-19 07:32:00,
2013-07-18 21:37:00,73.5,67.0,30.02,East,94,10.0,10.0,80,0.00,,,0.00,VWS V14.01,2013-07-19 07:37:00,
2013-07-18 21:42:00,73.5,67.0,30.03,ENE,71,5.0,5.0,80,0.00,,,0.00,VWS V14.01,2013-07-19 07:42:00,
2013-07-18 21:47:00,73.5,67.0,30.02,NNE,22,5.0,6.0,80,0.00,,,0.00,VWS V14.01,2013-07-19 07:47:00,
2013-07-18 21:53:00,73.4,67.2,30.03,ENE,59,4.0,12.0,81,0.00,,,0.00,VWS V14.01,2013-07-19 07:53:00,
2013-07-18 21:58:00,73.4,66.9,30.03,NE,52,8.0,9.0,80,0.00,,,0.00,VWS V14.01,2013-07-19 07:58:00,
2013-07-18 22:03:00,73.4,66.9,30.03,ENE,61,7.0,9.0,80,0.00,,,0.00,VWS V14.01,2013-07-19 08:03:00,
2013-07-18 22:08:00,73.5,66.6,30.03,NNE,23,5.0,12.0,79,0.00,,,0.00,VWS V14.01,2013-07-19 08:08:00,
2013-07-18 22:14:00,73.5,66.6,30.03,East,98,7.0,12.0,79,0.00,,,0.00,VWS V14.01,2013-07-19 08:14:00,
2013-07-18 22:19:00,73.6,66.7,30.03,ENE,59,4.0,11.0,79,0.00,,,0.00,VWS V14.01,2013-07-19 08:19:00,
2013-07-18 22:24:00,73.7,66.8,30.03,NE,45,4.0,7.0,79,0.00,,,0.00,VWS V14.01,2013-07-19 08:24:00,
2013-07-18 22:29:00,73.4,67.2,30.03,ESE,111,12.0,12.0,81,0.00,,,0.00,VWS V14.01,2013-07-19 08:29:00,
2013-07-18 22:34:00,73.3,67.1,30.03,NE,45,10.0,11.0,81,0.00,,,0.00,VWS V14.01,2013-07-19 08:34:00,
2013-07-18 22:39:00,73.4,67.2,30.03,NNE,21,17.0,17.0,81,0.00,,,0.00,VWS V14.01,2013-07-19 08:39:00,
2013-07-18 22:44:00,73.5,67.3,30.04,NE,50,10.0,10.0,81,0.00,,,0.00,VWS V14.01,2013-07-19 08:44:00,
2013-07-18 22:49:00,73.4,67.6,30.04,NNE,33,8.0,9.0,82,0.00,,,0.00,VWS V14.01,2013-07-19 08:49:00,
2013-07-18 22:54:00,73.2,67.7,30.04,NNE,27,4.0,7.0,83,0.00,,,0.00,VWS V14.01,2013-07-19 08:54:00,
2013-07-18 22:59:00,73.1,68.0,30.04,NNE,26,12.0,12.0,84,0.00,,,0.00,VWS V14.01,2013-07-19 08:59:00,
2013-07-18 23:04:00,73.1,68.3,30.04,NE,38,6.0,7.0,85,0.00,,,0.00,VWS V14.01,2013-07-19 09:04:00,
2013-07-18 23:09:00,72.9,68.1,30.04,NNE,26,8.0,12.0,85,0.00,,,0.00,VWS V14.01,2013-07-19 09:09:00,
2013-07-18 23:14:00,72.9,68.1,30.03,North,9,7.0,11.0,85,0.00,,,0.00,VWS V14.01,2013-07-19 09:14:00,
2013-07-18 23:19:00,72.9,67.8,30.03,NNE,14,3.0,4.0,84,0.00,,,0.00,VWS V14.01,2013-07-19 09:19:00,
2013-07-18 23:25:00,72.8,67.7,30.03,NNE,12,10.0,12.0,84,0.00,,,0.00,VWS V14.01,2013-07-19 09:25:00,
2013-07-18 23:30:00,73.0,67.2,30.03,East,97,11.0,11.0,82,0.00,,,0.00,VWS V14.01,2013-07-19 09:30:00,
2013-07-18 23:35:00,73.3,66.8,30.02,NW,322,11.0,12.0,80,0.00,,,0.00,VWS V14.01,2013-07-19 09:35:00,
2013-07-18 23:40:00,73.5,66.6,30.02,NNE,16,3.0,5.0,79,0.00,,,0.00,VWS V14.01,2013-07-19 09:40:00,
2013-07-18 23:45:00,73.6,66.7,30.02,NE,50,7.0,7.0,79,0.00,,,0.00,VWS V14.01,2013-07-19 09:45:00,
2013-07-18 23:50:00,73.5,66.6,30.02,ESE,107,5.0,9.0,79,0.00,,,0.00,VWS V14.01,2013-07-19 09:50:00,
2013-07-18 23:55:00,73.5,66.2,30.02,East,85,4.0,5.0,78,0.00,,,0.00,VWS V14.01,2013-07-19 09:55:00,